Thomas Junction, Idaho
Current Conditions -  °F | °C
As of 1:53 PM on Wednesday 26 Nov 2014 (Local Time) from KIDA Reporting Station
Broken Clouds Broken Clouds  
Wind Chill: 50°   Ceiling: 12000
Heat Index: 50°   Visibility: 10mi
Dew Point: 37°   Wind: 24mph
Humidity: 61%   Direction: 220°SW
Pressure: 30.26"   Gusts: 32mph
Location:  43.2718°N, 112.405°W
Report Text: KIDA 262053Z 22021G28KT 10SM SCT060 BKN120 BKN200 10/03 A3026 RMK AO2 PK WND 22028/2051 SLP243 T01000028 58008
Loading
Personal Weather Stations






























Interactive Weather Map New forecast layout! Learn more

10-Day Weather Forecast

Advertisements
Track Severe Weather on mobile